sensor_id;sensor_type;location;lat;lon;timestamp;pressure;altitude;pressure_sealevel;temperature;humidity
64352;BME280;50680;52.626;-8.668;2023-02-15T00:01:59;101623.06;;;11.04;100.00
64352;BME280;50680;52.626;-8.668;2023-02-15T00:04:26;101629.16;;;11.05;100.00
64352;BME280;50680;52.626;-8.668;2023-02-15T00:07:16;101622.19;;;11.04;100.00
64352;BME280;50680;52.626;-8.668;2023-02-15T00:09:47;101608.94;;;11.07;100.00
64352;BME280;50680;52.626;-8.668;2023-02-15T00:12:15;101604.38;;;11.10;100.00
64352;BME280;50680;52.626;-8.668;2023-02-15T00:14:43;101599.13;;;11.10;100.00
64352;BME280;50680;52.626;-8.668;2023-02-15T00:17:10;101598.44;;;11.07;100.00
64352;BME280;50680;52.626;-8.668;2023-02-15T00:19:36;101592.41;;;11.05;100.00
64352;BME280;50680;52.626;-8.668;2023-02-15T00:22:04;101584.41;;;11.08;100.00
64352;BME280;50680;52.626;-8.668;2023-02-15T00:24:31;101582.63;;;11.08;100.00
64352;BME280;50680;52.626;-8.668;2023-02-15T00:26:58;101572.06;;;11.10;100.00
64352;BME280;50680;52.626;-8.668;2023-02-15T00:29:25;101578.16;;;11.10;100.00
64352;BME280;50680;52.626;-8.668;2023-02-15T00:31:51;101574.59;;;11.12;100.00
64352;BME280;50680;52.626;-8.668;2023-02-15T00:34:22;101573.78;;;11.11;100.00
64352;BME280;50680;52.626;-8.668;2023-02-15T00:36:49;101560.47;;;11.14;100.00
64352;BME280;50680;52.626;-8.668;2023-02-15T00:39:16;101557.00;;;11.14;100.00
64352;BME280;50680;52.626;-8.668;2023-02-15T00:41:44;101536.78;;;11.16;100.00
64352;BME280;50680;52.626;-8.668;2023-02-15T00:44:12;101535.94;;;11.15;100.00
64352;BME280;50680;52.626;-8.668;2023-02-15T00:46:39;101535.25;;;11.12;100.00
64352;BME280;50680;52.626;-8.668;2023-02-15T00:49:06;101531.78;;;11.11;100.00
64352;BME280;50680;52.626;-8.668;2023-02-15T00:51:33;101526.53;;;11.11;100.00
64352;BME280;50680;52.626;-8.668;2023-02-15T00:54:00;101519.56;;;11.10;100.00
64352;BME280;50680;52.626;-8.668;2023-02-15T00:56:27;101530.06;;;11.10;100.00
64352;BME280;50680;52.626;-8.668;2023-02-15T00:58:55;101527.28;;;11.13;100.00
64352;BME280;50680;52.626;-8.668;2023-02-15T01:01:22;101514.03;;;11.16;100.00
64352;BME280;50680;52.626;-8.668;2023-02-15T01:03:50;101520.97;;;11.17;100.00
64352;BME280;50680;52.626;-8.668;2023-02-15T01:06:17;101520.81;;;11.20;100.00
64352;BME280;50680;52.626;-8.668;2023-02-15T01:08:45;101527.78;;;11.21;100.00
64352;BME280;50680;52.626;-8.668;2023-02-15T01:11:15;101522.44;;;11.23;100.00
64352;BME280;50680;52.626;-8.668;2023-02-15T01:13:54;101513.72;;;11.22;100.00
64352;BME280;50680;52.626;-8.668;2023-02-15T01:16:22;101508.31;;;11.25;100.00
64352;BME280;50680;52.626;-8.668;2023-02-15T01:18:50;101518.97;;;11.22;100.00
64352;BME280;50680;52.626;-8.668;2023-02-15T01:21:19;101487.59;;;11.19;100.00
64352;BME280;50680;52.626;-8.668;2023-02-15T01:23:47;101489.78;;;11.11;100.00
64352;BME280;50680;52.626;-8.668;2023-02-15T01:26:15;101504.03;;;11.05;100.00
64352;BME280;50680;52.626;-8.668;2023-02-15T01:28:42;101516.63;;;10.99;100.00
64352;BME280;50680;52.626;-8.668;2023-02-15T01:31:11;101545.69;;;10.94;100.00
64352;BME280;50680;52.626;-8.668;2023-02-15T01:33:38;101581.59;;;10.75;100.00
64352;BME280;50680;52.626;-8.668;2023-02-15T01:36:05;101591.63;;;10.46;100.00
64352;BME280;50680;52.626;-8.668;2023-02-15T01:38:33;101601.69;;;9.95;100.00
64352;BME280;50680;52.626;-8.668;2023-02-15T01:41:00;101617.94;;;9.60;100.00
64352;BME280;50680;52.626;-8.668;2023-02-15T01:44:01;101615.81;;;9.26;100.00
64352;BME280;50680;52.626;-8.668;2023-02-15T01:46:40;101617.91;;;8.94;100.00
64352;BME280;50680;52.626;-8.668;2023-02-15T01:49:17;101621.53;;;8.66;100.00
64352;BME280;50680;52.626;-8.668;2023-02-15T01:51:47;101629.94;;;8.51;100.00
64352;BME280;50680;52.626;-8.668;2023-02-15T01:54:19;101635.81;;;8.33;100.00
64352;BME280;50680;52.626;-8.668;2023-02-15T01:56:48;101625.66;;;8.23;100.00
64352;BME280;50680;52.626;-8.668;2023-02-15T01:59:19;101638.25;;;8.12;100.00
64352;BME280;50680;52.626;-8.668;2023-02-15T02:01:48;101637.66;;;8.04;100.00
64352;BME280;50680;52.626;-8.668;2023-02-15T02:04:28;101635.38;;;7.95;100.00
64352;BME280;50680;52.626;-8.668;2023-02-15T02:06:58;101656.44;;;7.88;100.00
64352;BME280;50680;52.626;-8.668;2023-02-15T02:09:26;101644.50;;;7.81;100.00
64352;BME280;50680;52.626;-8.668;2023-02-15T02:11:53;101655.13;;;7.75;100.00
64352;BME280;50680;52.626;-8.668;2023-02-15T02:14:21;101663.13;;;7.70;100.00
64352;BME280;50680;52.626;-8.668;2023-02-15T02:17:07;101663.47;;;7.60;100.00
64352;BME280;50680;52.626;-8.668;2023-02-15T02:44:22;101703.97;;;7.43;100.00
64352;BME280;50680;52.626;-8.668;2023-02-15T02:47:21;101709.16;;;7.45;100.00
64352;BME280;50680;52.626;-8.668;2023-02-15T02:49:45;101706.59;;;7.43;100.00
64352;BME280;50680;52.626;-8.668;2023-02-15T02:52:44;101700.66;;;7.38;100.00
64352;BME280;50680;52.626;-8.668;2023-02-15T02:55:17;101696.44;;;7.34;100.00
64352;BME280;50680;52.626;-8.668;2023-02-15T03:00:29;101699.31;;;7.25;100.00
64352;BME280;50680;52.626;-8.668;2023-02-15T03:03:09;101698.59;;;7.20;100.00
64352;BME280;50680;52.626;-8.668;2023-02-15T03:05:40;101707.41;;;7.15;100.00
64352;BME280;50680;52.626;-8.668;2023-02-15T03:08:08;101703.19;;;7.11;100.00
64352;BME280;50680;52.626;-8.668;2023-02-15T03:10:38;101695.50;;;7.07;100.00
64352;BME280;50680;52.626;-8.668;2023-02-15T03:13:05;101689.47;;;7.05;100.00
64352;BME280;50680;52.626;-8.668;2023-02-15T03:15:37;101706.94;;;7.03;100.00
64352;BME280;50680;52.626;-8.668;2023-02-15T03:18:30;101700.09;;;6.97;100.00
64352;BME280;50680;52.626;-8.668;2023-02-15T03:21:01;101705.28;;;6.99;100.00
64352;BME280;50680;52.626;-8.668;2023-02-15T03:23:30;101696.63;;;6.98;100.00
64352;BME280;50680;52.626;-8.668;2023-02-15T03:26:01;101691.41;;;6.98;100.00
64352;BME280;50680;52.626;-8.668;2023-02-15T03:28:31;101678.44;;;6.95;100.00
64352;BME280;50680;52.626;-8.668;2023-02-15T03:31:03;101673.31;;;6.92;100.00
64352;BME280;50680;52.626;-8.668;2023-02-15T03:33:31;101669.91;;;6.90;100.00
64352;BME280;50680;52.626;-8.668;2023-02-15T03:36:24;101659.47;;;6.90;100.00
64352;BME280;50680;52.626;-8.668;2023-02-15T03:41:45;101649.97;;;6.89;100.00
64352;BME280;50680;52.626;-8.668;2023-02-15T03:44:30;101641.31;;;6.87;100.00
64352;BME280;50680;52.626;-8.668;2023-02-15T03:47:05;101638.69;;;6.87;100.00
64352;BME280;50680;52.626;-8.668;2023-02-15T03:49:41;101637.06;;;6.84;100.00
64352;BME280;50680;52.626;-8.668;2023-02-15T03:52:10;101642.22;;;6.86;100.00
64352;BME280;50680;52.626;-8.668;2023-02-15T03:54:40;101642.31;;;6.83;100.00
64352;BME280;50680;52.626;-8.668;2023-02-15T03:57:25;101645.78;;;6.82;100.00
64352;BME280;50680;52.626;-8.668;2023-02-15T04:00:32;101642.41;;;6.78;100.00
64352;BME280;50680;52.626;-8.668;2023-02-15T04:05:51;101632.03;;;6.76;100.00
64352;BME280;50680;52.626;-8.668;2023-02-15T04:08:17;101627.78;;;6.74;100.00
64352;BME280;50680;52.626;-8.668;2023-02-15T04:10:44;101635.63;;;6.72;100.00
64352;BME280;50680;52.626;-8.668;2023-02-15T04:13:29;101639.22;;;6.70;100.00
64352;BME280;50680;52.626;-8.668;2023-02-15T04:15:56;101629.66;;;6.69;100.00
64352;BME280;50680;52.626;-8.668;2023-02-15T04:18:36;101609.66;;;6.69;100.00
64352;BME280;50680;52.626;-8.668;2023-02-15T04:21:24;101615.84;;;6.67;100.00
64352;BME280;50680;52.626;-8.668;2023-02-15T04:24:10;101604.59;;;6.65;100.00
64352;BME280;50680;52.626;-8.668;2023-02-15T04:26:56;101608.22;;;6.59;100.00
64352;BME280;50680;52.626;-8.668;2023-02-15T04:29:24;101608.22;;;6.59;100.00
64352;BME280;50680;52.626;-8.668;2023-02-15T04:31:52;101605.69;;;6.57;100.00
64352;BME280;50680;52.626;-8.668;2023-02-15T04:34:20;101611.81;;;6.55;100.00
64352;BME280;50680;52.626;-8.668;2023-02-15T04:36:47;101617.84;;;6.57;100.00
64352;BME280;50680;52.626;-8.668;2023-02-15T04:39:15;101611.81;;;6.55;100.00
64352;BME280;50680;52.626;-8.668;2023-02-15T04:41:43;101620.50;;;6.54;100.00
64352;BME280;50680;52.626;-8.668;2023-02-15T04:44:10;101632.66;;;6.55;100.00
64352;BME280;50680;52.626;-8.668;2023-02-15T04:46:37;101633.50;;;6.55;100.00
64352;BME280;50680;52.626;-8.668;2023-02-15T04:49:03;101646.53;;;6.55;100.00
64352;BME280;50680;52.626;-8.668;2023-02-15T04:51:30;101640.41;;;6.58;100.00
64352;BME280;50680;52.626;-8.668;2023-02-15T04:53:57;101644.66;;;6.61;100.00
64352;BME280;50680;52.626;-8.668;2023-02-15T04:56:24;101648.97;;;6.62;100.00
64352;BME280;50680;52.626;-8.668;2023-02-15T04:58:51;101652.47;;;6.61;100.00
64352;BME280;50680;52.626;-8.668;2023-02-15T05:01:17;101645.47;;;6.63;100.00
64352;BME280;50680;52.626;-8.668;2023-02-15T05:03:44;101642.81;;;6.64;100.00
64352;BME280;50680;52.626;-8.668;2023-02-15T05:06:11;101650.56;;;6.67;100.00
64352;BME280;50680;52.626;-8.668;2023-02-15T05:08:38;101641.13;;;6.63;100.00
64352;BME280;50680;52.626;-8.668;2023-02-15T05:11:05;101641.97;;;6.64;100.00
64352;BME280;50680;52.626;-8.668;2023-02-15T05:13:32;101654.97;;;6.65;100.00
64352;BME280;50680;52.626;-8.668;2023-02-15T05:15:59;101650.63;;;6.64;100.00
64352;BME280;50680;52.626;-8.668;2023-02-15T05:18:26;101648.03;;;6.64;100.00
64352;BME280;50680;52.626;-8.668;2023-02-15T05:20:53;101657.59;;;6.64;100.00
64352;BME280;50680;52.626;-8.668;2023-02-15T05:23:20;101660.25;;;6.62;100.00
64352;BME280;50680;52.626;-8.668;2023-02-15T05:25:48;101657.72;;;6.59;100.00
64352;BME280;50680;52.626;-8.668;2023-02-15T05:28:35;101656.09;;;6.55;100.00
64352;BME280;50680;52.626;-8.668;2023-02-15T05:31:13;101657.06;;;6.52;100.00
64352;BME280;50680;52.626;-8.668;2023-02-15T05:33:41;101658.78;;;6.52;100.00
64352;BME280;50680;52.626;-8.668;2023-02-15T05:36:09;101665.72;;;6.53;100.00
64352;BME280;50680;52.626;-8.668;2023-02-15T05:38:36;101663.13;;;6.53;100.00
64352;BME280;50680;52.626;-8.668;2023-02-15T05:41:06;101665.69;;;6.54;100.00
64352;BME280;50680;52.626;-8.668;2023-02-15T05:43:33;101666.56;;;6.53;100.00
64352;BME280;50680;52.626;-8.668;2023-02-15T05:46:01;101663.16;;;6.51;100.00
64352;BME280;50680;52.626;-8.668;2023-02-15T05:48:28;101665.84;;;6.48;100.00
64352;BME280;50680;52.626;-8.668;2023-02-15T05:53:33;101664.19;;;6.46;100.00
64352;BME280;50680;52.626;-8.668;2023-02-15T05:56:00;101663.34;;;6.44;100.00
64352;BME280;50680;52.626;-8.668;2023-02-15T05:58:34;101657.38;;;6.40;100.00
64352;BME280;50680;52.626;-8.668;2023-02-15T06:01:30;101657.47;;;6.37;100.00
64352;BME280;50680;52.626;-8.668;2023-02-15T06:03:57;101654.88;;;6.37;100.00
64352;BME280;50680;52.626;-8.668;2023-02-15T06:06:24;101659.25;;;6.35;100.00
64352;BME280;50680;52.626;-8.668;2023-02-15T06:08:51;101652.31;;;6.35;100.00
64352;BME280;50680;52.626;-8.668;2023-02-15T06:11:18;101658.31;;;6.37;100.00
64352;BME280;50680;52.626;-8.668;2023-02-15T06:13:45;101659.13;;;6.39;100.00
64352;BME280;50680;52.626;-8.668;2023-02-15T06:16:11;101652.22;;;6.38;100.00
64352;BME280;50680;52.626;-8.668;2023-02-15T06:18:38;101657.38;;;6.40;100.00
64352;BME280;50680;52.626;-8.668;2023-02-15T06:21:05;101657.44;;;6.38;100.00
64352;BME280;50680;52.626;-8.668;2023-02-15T06:23:32;101659.03;;;6.43;100.00
64352;BME280;50680;52.626;-8.668;2023-02-15T06:25:59;101653.84;;;6.43;100.00
64352;BME280;50680;52.626;-8.668;2023-02-15T06:28:26;101656.44;;;6.43;100.00
64352;BME280;50680;52.626;-8.668;2023-02-15T06:30:53;101651.28;;;6.41;100.00
64352;BME280;50680;52.626;-8.668;2023-02-15T06:33:20;101666.91;;;6.41;100.00
64352;BME280;50680;52.626;-8.668;2023-02-15T06:35:47;101663.56;;;6.36;100.00
64352;BME280;50680;52.626;-8.668;2023-02-15T06:38:14;101655.00;;;6.31;100.00
64352;BME280;50680;52.626;-8.668;2023-02-15T06:40:41;101656.13;;;6.22;100.00
64352;BME280;50680;52.626;-8.668;2023-02-15T06:43:08;101662.44;;;6.12;100.00
64352;BME280;50680;52.626;-8.668;2023-02-15T06:45:34;101676.63;;;6.00;100.00
64352;BME280;50680;52.626;-8.668;2023-02-15T06:48:01;101671.69;;;5.88;100.00
64352;BME280;50680;52.626;-8.668;2023-02-15T06:50:28;101677.97;;;5.79;100.00
64352;BME280;50680;52.626;-8.668;2023-02-15T06:52:56;101673.00;;;5.70;100.00
64352;BME280;50680;52.626;-8.668;2023-02-15T06:55:23;101669.72;;;5.61;100.00
64352;BME280;50680;52.626;-8.668;2023-02-15T06:57:50;101670.75;;;5.54;100.00
64352;BME280;50680;52.626;-8.668;2023-02-15T07:00:17;101680.41;;;5.49;100.00
64352;BME280;50680;52.626;-8.668;2023-02-15T07:02:45;101679.78;;;5.38;100.00
64352;BME280;50680;52.626;-8.668;2023-02-15T07:05:12;101682.50;;;5.33;100.00
64352;BME280;50680;52.626;-8.668;2023-02-15T07:07:39;101692.97;;;5.28;100.00
64352;BME280;50680;52.626;-8.668;2023-02-15T07:10:06;101687.91;;;5.22;100.00
64352;BME280;50680;52.626;-8.668;2023-02-15T07:12:33;101695.81;;;5.18;100.00
64352;BME280;50680;52.626;-8.668;2023-02-15T07:15:10;101695.16;;;5.08;100.00
64352;BME280;50680;52.626;-8.668;2023-02-15T07:17:38;101697.88;;;5.02;100.00
64352;BME280;50680;52.626;-8.668;2023-02-15T07:20:08;101706.59;;;4.99;100.00
64352;BME280;50680;52.626;-8.668;2023-02-15T07:22:36;101709.31;;;4.93;100.00
64352;BME280;50680;52.626;-8.668;2023-02-15T07:25:04;101705.09;;;4.86;100.00
64352;BME280;50680;52.626;-8.668;2023-02-15T07:27:32;101709.56;;;4.79;100.00
64352;BME280;50680;52.626;-8.668;2023-02-15T07:29:59;101707.94;;;4.74;100.00
64352;BME280;50680;52.626;-8.668;2023-02-15T07:32:31;101711.47;;;4.71;100.00
64352;BME280;50680;52.626;-8.668;2023-02-15T07:34:59;101715.84;;;4.69;100.00
64352;BME280;50680;52.626;-8.668;2023-02-15T07:37:27;101715.06;;;4.64;100.00
64352;BME280;50680;52.626;-8.668;2023-02-15T07:39:54;101722.06;;;4.60;100.00
64352;BME280;50680;52.626;-8.668;2023-02-15T07:42:21;101716.03;;;4.57;100.00
64352;BME280;50680;52.626;-8.668;2023-02-15T07:44:48;101728.22;;;4.53;100.00
64352;BME280;50680;52.626;-8.668;2023-02-15T07:47:15;101723.06;;;4.51;100.00
64352;BME280;50680;52.626;-8.668;2023-02-15T07:49:42;101723.06;;;4.51;100.00
64352;BME280;50680;52.626;-8.668;2023-02-15T07:52:09;101731.69;;;4.55;100.00
64352;BME280;50680;52.626;-8.668;2023-02-15T07:54:36;101732.53;;;4.56;100.00
64352;BME280;50680;52.626;-8.668;2023-02-15T07:57:03;101731.69;;;4.55;100.00
64352;BME280;50680;52.626;-8.668;2023-02-15T07:59:29;101738.56;;;4.56;100.00
64352;BME280;50680;52.626;-8.668;2023-02-15T08:01:56;101731.63;;;4.57;100.00
64352;BME280;50680;52.626;-8.668;2023-02-15T08:04:24;101739.38;;;4.60;100.00
64352;BME280;50680;52.626;-8.668;2023-02-15T08:06:53;101742.75;;;4.65;100.00
64352;BME280;50680;52.626;-8.668;2023-02-15T08:09:21;101745.28;;;4.68;100.00
64352;BME280;50680;52.626;-8.668;2023-02-15T08:11:49;101744.34;;;4.72;100.00
64352;BME280;50680;52.626;-8.668;2023-02-15T08:14:20;101742.50;;;4.79;100.00
64352;BME280;50680;52.626;-8.668;2023-02-15T08:16:50;101748.44;;;4.85;100.00
64352;BME280;50680;52.626;-8.668;2023-02-15T08:21:50;101750.81;;;4.98;100.00
64352;BME280;50680;52.626;-8.668;2023-02-15T08:24:19;101756.75;;;5.03;100.00
64352;BME280;50680;52.626;-8.668;2023-02-15T08:26:48;101754.13;;;5.06;100.00
64352;BME280;50680;52.626;-8.668;2023-02-15T08:29:17;101743.66;;;5.09;100.00
64352;BME280;50680;52.626;-8.668;2023-02-15T08:31:45;101759.56;;;5.36;100.00
64352;BME280;50680;52.626;-8.668;2023-02-15T08:34:15;101765.94;;;5.63;100.00
64352;BME280;50680;52.626;-8.668;2023-02-15T08:36:43;101764.53;;;5.87;100.00
64352;BME280;50680;52.626;-8.668;2023-02-15T08:39:13;101769.13;;;6.15;100.00
64352;BME280;50680;52.626;-8.668;2023-02-15T08:41:45;101763.38;;;6.36;100.00
64352;BME280;50680;52.626;-8.668;2023-02-15T08:44:15;101763.72;;;6.58;100.00
64352;BME280;50680;52.626;-8.668;2023-02-15T08:46:43;101763.16;;;6.80;100.00
64352;BME280;50680;52.626;-8.668;2023-02-15T08:49:12;101770.44;;;7.00;100.00
64352;BME280;50680;52.626;-8.668;2023-02-15T08:51:40;101765.63;;;7.16;100.00
64352;BME280;50680;52.626;-8.668;2023-02-15T08:54:13;101766.00;;;7.33;100.00
64352;BME280;50680;52.626;-8.668;2023-02-15T08:56:42;101772.47;;;7.51;100.00
64352;BME280;50680;52.626;-8.668;2023-02-15T08:59:14;101764.00;;;7.71;100.00
64352;BME280;50680;52.626;-8.668;2023-02-15T09:01:42;101764.59;;;7.81;100.00
64352;BME280;50680;52.626;-8.668;2023-02-15T09:04:09;101768.69;;;7.90;100.00
64352;BME280;50680;52.626;-8.668;2023-02-15T09:06:38;101765.63;;;8.04;100.00
64352;BME280;50680;52.626;-8.668;2023-02-15T09:09:06;101767.06;;;8.14;100.00
64352;BME280;50680;52.626;-8.668;2023-02-15T09:11:39;101771.16;;;8.21;100.00
64352;BME280;50680;52.626;-8.668;2023-02-15T09:14:11;101773.19;;;8.40;100.00
64352;BME280;50680;52.626;-8.668;2023-02-15T09:16:41;101770.25;;;8.51;100.00
64352;BME280;50680;52.626;-8.668;2023-02-15T09:19:11;101773.09;;;8.70;100.00
64352;BME280;50680;52.626;-8.668;2023-02-15T09:21:38;101778.81;;;8.81;100.00
64352;BME280;50680;52.626;-8.668;2023-02-15T09:24:08;101782.56;;;8.97;100.00
64352;BME280;50680;52.626;-8.668;2023-02-15T09:26:38;101782.94;;;9.12;100.00
64352;BME280;50680;52.626;-8.668;2023-02-15T09:29:07;101785.69;;;9.32;100.00
64352;BME280;50680;52.626;-8.668;2023-02-15T09:31:43;101781.66;;;9.47;100.00
64352;BME280;50680;52.626;-8.668;2023-02-15T09:34:12;101783.28;;;9.50;100.00
64352;BME280;50680;52.626;-8.668;2023-02-15T09:36:39;101780.59;;;9.51;100.00
64352;BME280;50680;52.626;-8.668;2023-02-15T09:39:12;101790.75;;;9.60;100.00
64352;BME280;50680;52.626;-8.668;2023-02-15T09:52:33;101787.84;;;9.90;100.00
64352;BME280;50680;52.626;-8.668;2023-02-15T10:11:15;101787.09;;;10.31;100.00
64352;BME280;50680;52.626;-8.668;2023-02-15T10:17:41;101782.03;;;10.48;100.00
64352;BME280;50680;52.626;-8.668;2023-02-15T10:28:09;101796.53;;;10.78;100.00
64352;BME280;50680;52.626;-8.668;2023-02-15T10:30:48;101783.94;;;10.86;100.00
64352;BME280;50680;52.626;-8.668;2023-02-15T10:33:24;101783.09;;;10.85;100.00
64352;BME280;50680;52.626;-8.668;2023-02-15T10:38:37;101792.00;;;11.02;100.00
64352;BME280;50680;52.626;-8.668;2023-02-15T10:41:41;101789.84;;;11.12;100.00
64352;BME280;50680;52.626;-8.668;2023-02-15T10:44:43;101791.72;;;11.28;100.00
64352;BME280;50680;52.626;-8.668;2023-02-15T10:52:42;101801.66;;;11.41;100.00
64352;BME280;50680;52.626;-8.668;2023-02-15T11:01:11;101800.81;;;11.59;100.00
64352;BME280;50680;52.626;-8.668;2023-02-15T11:06:12;101800.31;;;11.70;100.00
64352;BME280;50680;52.626;-8.668;2023-02-15T11:08:55;101798.25;;;11.77;100.00
64352;BME280;50680;52.626;-8.668;2023-02-15T11:11:30;101797.41;;;11.95;100.00
64352;BME280;50680;52.626;-8.668;2023-02-15T11:14:03;101799.97;;;11.97;100.00
64352;BME280;50680;52.626;-8.668;2023-02-15T11:16:36;101801.22;;;11.88;100.00
64352;BME280;50680;52.626;-8.668;2023-02-15T11:21:43;101800.28;;;11.91;100.00
64352;BME280;50680;52.626;-8.668;2023-02-15T11:24:13;101802.88;;;12.10;100.00
64352;BME280;50680;52.626;-8.668;2023-02-15T11:26:46;101793.25;;;12.09;100.00
64352;BME280;50680;52.626;-8.668;2023-02-15T11:29:18;101793.44;;;12.23;100.00
64352;BME280;50680;52.626;-8.668;2023-02-15T11:31:53;101792.66;;;12.21;100.00
64352;BME280;50680;52.626;-8.668;2023-02-15T11:34:27;101794.31;;;12.23;100.00
64352;BME280;50680;52.626;-8.668;2023-02-15T11:37:00;101791.13;;;12.17;100.00
64352;BME280;50680;52.626;-8.668;2023-02-15T11:39:30;101789.34;;;12.17;100.00
64352;BME280;50680;52.626;-8.668;2023-02-15T11:42:08;101791.25;;;12.14;100.00
64352;BME280;50680;52.626;-8.668;2023-02-15T11:44:54;101781.66;;;12.13;100.00
64352;BME280;50680;52.626;-8.668;2023-02-15T11:47:23;101780.47;;;12.20;100.00
64352;BME280;50680;52.626;-8.668;2023-02-15T11:49:50;101776.97;;;12.19;100.00
64352;BME280;50680;52.626;-8.668;2023-02-15T11:52:17;101778.47;;;12.25;100.00
64352;BME280;50680;52.626;-8.668;2023-02-15T11:54:47;101773.97;;;12.27;100.00
64352;BME280;50680;52.626;-8.668;2023-02-15T11:57:36;101778.25;;;12.11;100.00
64352;BME280;50680;52.626;-8.668;2023-02-15T12:00:28;101778.03;;;12.15;100.00
64352;BME280;50680;52.626;-8.668;2023-02-15T12:02:57;101778.75;;;12.19;100.00
64352;BME280;50680;52.626;-8.668;2023-02-15T12:05:25;101779.78;;;12.34;100.00
64352;BME280;50680;52.626;-8.668;2023-02-15T12:07:57;101773.50;;;12.19;100.00
64352;BME280;50680;52.626;-8.668;2023-02-15T12:10:30;101766.28;;;12.22;100.00
64352;BME280;50680;52.626;-8.668;2023-02-15T12:13:20;101771.06;;;12.14;100.00
64352;BME280;50680;52.626;-8.668;2023-02-15T12:15:53;101761.81;;;12.25;100.00
64352;BME280;50680;52.626;-8.668;2023-02-15T12:18:42;101765.31;;;12.25;100.00
64352;BME280;50680;52.626;-8.668;2023-02-15T12:21:13;101772.25;;;12.44;100.00
64352;BME280;50680;52.626;-8.668;2023-02-15T12:23:47;101764.16;;;12.48;100.00
64352;BME280;50680;52.626;-8.668;2023-02-15T12:26:32;101758.19;;;12.45;100.00
64352;BME280;50680;52.626;-8.668;2023-02-15T12:29:21;101745.66;;;12.32;100.00
64352;BME280;50680;52.626;-8.668;2023-02-15T12:31:51;101752.16;;;12.43;100.00
64352;BME280;50680;52.626;-8.668;2023-02-15T12:34:35;101756.19;;;12.32;100.00
64352;BME280;50680;52.626;-8.668;2023-02-15T12:37:15;101753.00;;;12.26;100.00
64352;BME280;50680;52.626;-8.668;2023-02-15T12:42:19;101750.78;;;12.53;100.00
64352;BME280;50680;52.626;-8.668;2023-02-15T12:45:01;101755.94;;;12.54;100.00
64352;BME280;50680;52.626;-8.668;2023-02-15T12:47:29;101753.63;;;12.66;100.00
64352;BME280;50680;52.626;-8.668;2023-02-15T12:50:14;101743.31;;;12.61;100.00
64352;BME280;50680;52.626;-8.668;2023-02-15T12:52:46;101744.81;;;12.67;100.00
64352;BME280;50680;52.626;-8.668;2023-02-15T12:55:26;101746.47;;;12.68;100.00
64352;BME280;50680;52.626;-8.668;2023-02-15T12:58:18;101757.25;;;12.63;100.00
64352;BME280;50680;52.626;-8.668;2023-02-15T13:00:46;101745.50;;;12.70;100.00
64352;BME280;50680;52.626;-8.668;2023-02-15T13:03:18;101747.44;;;12.49;100.00
64352;BME280;50680;52.626;-8.668;2023-02-15T13:05:48;101746.84;;;12.44;100.00
64352;BME280;50680;52.626;-8.668;2023-02-15T13:08:30;101735.75;;;12.20;100.00
64352;BME280;50680;52.626;-8.668;2023-02-15T13:11:07;101739.69;;;12.11;100.00
64352;BME280;50680;52.626;-8.668;2023-02-15T13:13:55;101732.78;;;11.91;100.00
64352;BME280;50680;52.626;-8.668;2023-02-15T13:16:33;101730.63;;;11.99;100.00
64352;BME280;50680;52.626;-8.668;2023-02-15T13:19:15;101729.50;;;11.86;100.00
64352;BME280;50680;52.626;-8.668;2023-02-15T13:21:51;101720.69;;;11.87;100.00
64352;BME280;50680;52.626;-8.668;2023-02-15T13:24:23;101732.13;;;11.86;100.00
64352;BME280;50680;52.626;-8.668;2023-02-15T13:26:50;101735.34;;;11.74;100.00
64352;BME280;50680;52.626;-8.668;2023-02-15T13:29:34;101732.72;;;11.74;100.00
64352;BME280;50680;52.626;-8.668;2023-02-15T13:32:14;101720.63;;;11.70;100.00
64352;BME280;50680;52.626;-8.668;2023-02-15T13:34:41;101723.75;;;11.78;100.00
64352;BME280;50680;52.626;-8.668;2023-02-15T13:37:24;101725.88;;;11.70;100.00
64352;BME280;50680;52.626;-8.668;2023-02-15T13:40:06;101720.34;;;11.76;100.00
64352;BME280;50680;52.626;-8.668;2023-02-15T13:42:38;101731.56;;;11.79;100.00
64352;BME280;50680;52.626;-8.668;2023-02-15T13:47:48;101712.91;;;11.66;100.00
64352;BME280;50680;52.626;-8.668;2023-02-15T13:50:31;101720.56;;;11.71;100.00
64352;BME280;50680;52.626;-8.668;2023-02-15T13:55:43;101710.56;;;11.60;100.00
64352;BME280;50680;52.626;-8.668;2023-02-15T13:58:21;101714.78;;;11.64;100.00
64352;BME280;50680;52.626;-8.668;2023-02-15T14:01:08;101711.19;;;11.65;100.00
64352;BME280;50680;52.626;-8.668;2023-02-15T14:09:18;101700.75;;;11.64;100.00
64352;BME280;50680;52.626;-8.668;2023-02-15T14:21:03;101684.34;;;11.78;100.00
64352;BME280;50680;52.626;-8.668;2023-02-15T14:23:44;101681.50;;;11.82;100.00
64352;BME280;50680;52.626;-8.668;2023-02-15T14:32:04;101670.28;;;11.79;100.00
64352;BME280;50680;52.626;-8.668;2023-02-15T14:35:17;101665.47;;;11.70;100.00
64352;BME280;50680;52.626;-8.668;2023-02-15T14:38:01;101653.34;;;11.67;100.00
64352;BME280;50680;52.626;-8.668;2023-02-15T14:40:36;101647.59;;;11.59;100.00
64352;BME280;50680;52.626;-8.668;2023-02-15T14:48:54;101628.59;;;11.54;100.00
64352;BME280;50680;52.626;-8.668;2023-02-15T14:59:43;101628.91;;;11.47;100.00
64352;BME280;50680;52.626;-8.668;2023-02-15T15:02:19;101615.69;;;11.49;100.00
64352;BME280;50680;52.626;-8.668;2023-02-15T15:07:47;101610.56;;;11.28;100.00
64352;BME280;50680;52.626;-8.668;2023-02-15T15:15:28;101600.81;;;11.31;100.00
64352;BME280;50680;52.626;-8.668;2023-02-15T15:21:02;101604.81;;;11.20;100.00
64352;BME280;50680;52.626;-8.668;2023-02-15T15:23:41;101592.59;;;11.19;100.00
64352;BME280;50680;52.626;-8.668;2023-02-15T15:26:27;101600.25;;;11.24;100.00
64352;BME280;50680;52.626;-8.668;2023-02-15T15:28:58;101610.19;;;11.17;100.00
64352;BME280;50680;52.626;-8.668;2023-02-15T15:31:43;101603.53;;;11.10;100.00